Time;durP1;ratioP1;P1;durP2;ratioP2;P2;SDS_P1;SDS_P2;PMS_P1;PMS_P2;Temp;Humidity;BMP_temperature;BMP_pressure;BME280_temperature;BME280_humidity;BME280_pressure;Samples;Min_cycle;Max_cycle;Signal;HPM_P1;HPM_P2
2022/10/31 00:03:23;;;;;;;;;;;;;;;;;;10462090;28;20331;-64
2022/10/31 00:08:25;;;;;;;;;;;;;;;;;;10452686;28;19925;-64
2022/10/31 00:13:27;;;;;;;;;;;;;;;;;;10421286;28;19933;-64
2022/10/31 00:18:29;;;;;;;;;;;;;;;;;;10421165;28;19925;-64
2022/10/31 00:23:31;;;;;;;;;;;;;;;;;;10419341;28;20335;-64
2022/10/31 00:28:33;;;;;;;;;;;;;;;;;;10402393;28;19925;-64
2022/10/31 00:33:36;;;;;;;;;;;;;;;;;;10419923;28;19925;-64
2022/10/31 00:38:38;;;;;;;;;;;;;;;;;;10420408;28;19925;-64
2022/10/31 00:43:40;;;;;;;;;;;;;;;;;;10432276;28;19925;-64
2022/10/31 00:48:42;;;;;;;;;;;;;;;;;;10459054;28;19929;-64
2022/10/31 00:53:44;;;;;;;;;;;;;;;;;;10459168;28;19951;-64
2022/10/31 00:58:46;;;;;;;;;;;;;;;;;;10460775;28;19925;-64
2022/10/31 01:03:48;;;;;;;;;;;;;;;;;;10459848;28;19925;-64
2022/10/31 01:08:50;;;;;;;;;;;;;;;;;;10440929;28;19929;-64
2022/10/31 01:13:52;;;;;;;;;;;;;;;;;;10418352;28;20371;-64
2022/10/31 01:18:54;;;;;;;;;;;;;;;;;;10418199;28;19991;-64
2022/10/31 01:23:56;;;;;;;;;;;;;;;;;;10417653;28;19932;-64
2022/10/31 01:28:59;;;;;;;;;;;;;;;;;;10438219;28;19925;-64
2022/10/31 01:34:01;;;;;;;;;;;;;;;;;;10459363;28;19955;-64
2022/10/31 01:39:03;;;;;;;;;;;;;;;;;;10458533;28;20342;-64
2022/10/31 01:44:05;;;;;;;;;;;;;;;;;;10456620;28;19925;-64
2022/10/31 01:49:07;;;;;;;;;;;;;;;;;;10457514;28;19959;-64
2022/10/31 01:54:09;;;;;;;;;;;;;;;;;;10433671;28;20457;-64
2022/10/31 01:59:11;;;;;;;;;;;;;;;;;;10431185;28;19925;-64
2022/10/31 02:04:13;;;;;;;;;;;;;;;;;;10457486;28;20040;-64
2022/10/31 02:09:15;;;;;;;;;;;;;;;;;;10456858;28;19925;-64
2022/10/31 02:14:17;;;;;;;;;;;;;;;;;;10457923;28;19929;-64
2022/10/31 02:19:19;;;;;;;;;;;;;;;;;;10457189;28;19925;-64
2022/10/31 02:24:21;;;;;;;;;;;;;;;;;;10429594;28;20299;-64
2022/10/31 02:29:23;;;;;;;;;;;;;;;;;;10416355;28;19979;-64
2022/10/31 02:34:25;;;;;;;;;;;;;;;;;;10415722;28;20329;-64
2022/10/31 02:39:27;;;;;;;;;;;;;;;;;;10443294;28;19929;-64
2022/10/31 02:44:29;;;;;;;;;;;;;;;;;;10457255;28;19925;-64
2022/10/31 02:49:31;;;;;;;;;;;;;;;;;;10454072;28;19979;-64
2022/10/31 02:54:34;;;;;;;;;;;;;;;;;;10441458;28;19925;-64
2022/10/31 02:59:36;;;;;;;;;;;;;;;;;;10454372;28;19924;-64
2022/10/31 03:04:38;;;;;;;;;;;;;;;;;;10456063;28;19929;-64
2022/10/31 03:09:40;;;;;;;;;;;;;;;;;;10463563;28;19925;-64
2022/10/31 03:14:42;;;;;;;;;;;;;;;;;;10463705;28;19979;-64
2022/10/31 03:19:44;;;;;;;;;;;;;;;;;;10459232;28;19925;-64
2022/10/31 03:24:46;;;;;;;;;;;;;;;;;;10464469;28;19925;-64
2022/10/31 03:29:48;;;;;;;;;;;;;;;;;;10462402;28;20392;-64
2022/10/31 03:34:50;;;;;;;;;;;;;;;;;;10464012;28;19966;-64
2022/10/31 03:39:52;;;;;;;;;;;;;;;;;;10460899;28;19925;-64
2022/10/31 03:44:54;;;;;;;;;;;;;;;;;;10463677;28;19929;-64
2022/10/31 03:49:56;;;;;;;;;;;;;;;;;;10449784;28;19929;-64
2022/10/31 03:54:58;;;;;;;;;;;;;;;;;;10461962;28;19933;-64
2022/10/31 04:00:00;;;;;;;;;;;;;;;;;;10461886;28;19970;-64
2022/10/31 04:05:02;;;;;;;;;;;;;;;;;;10462212;28;19925;-64
2022/10/31 04:10:04;;;;;;;;;;;;;;;;;;10460048;28;19925;-64
2022/10/31 04:15:06;;;;;;;;;;;;;;;;;;10462493;28;19924;-64
2022/10/31 04:20:08;;;;;;;;;;;;;;;;;;10423745;28;19929;-64
2022/10/31 04:25:10;;;;;;;;;;;;;;;;;;10432574;28;20371;-64
2022/10/31 04:30:12;;;;;;;;;;;;;;;;;;10461928;28;19928;-64
2022/10/31 04:35:15;;;;;;;;;;;;;;;;;;10460102;28;19983;-64
2022/10/31 04:40:17;;;;;;;;;;;;;;;;;;10460946;28;20368;-64
2022/10/31 04:45:19;;;;;;;;;;;;;;;;;;10461369;28;19951;-64
2022/10/31 04:50:22;;;;;;;;;;;;;;;;;;10459274;28;20273;-64
2022/10/31 04:55:24;;;;;;;;;;;;;;;;;;10460845;28;19932;-64
2022/10/31 05:00:26;;;;;;;;;;;;;;;;;;10460117;28;20430;-64
2022/10/31 05:05:28;;;;;;;;;;;;;;;;;;10457862;28;19929;-63
2022/10/31 05:10:30;;;;;;;;;;;;;;;;;;10459667;28;19924;-64
2022/10/31 05:15:32;;;;;;;;;;;;;;;;;;10458336;28;19925;-64
2022/10/31 05:20:34;;;;;;;;;;;;;;;;;;10459939;28;19970;-64
2022/10/31 05:25:36;;;;;;;;;;;;;;;;;;10460507;28;19924;-64
2022/10/31 05:30:38;;;;;;;;;;;;;;;;;;10457521;28;19928;-64
2022/10/31 05:35:40;;;;;;;;;;;;;;;;;;10457700;28;19924;-64
2022/10/31 05:40:43;;;;;;;;;;;;;;;;;;10458504;28;19975;-64
2022/10/31 05:45:45;;;;;;;;;;;;;;;;;;10454078;28;19925;-64
2022/10/31 05:50:47;;;;;;;;;;;;;;;;;;10416882;28;20277;-64
2022/10/31 05:55:49;;;;;;;;;;;;;;;;;;10417431;28;19929;-64
2022/10/31 06:00:51;;;;;;;;;;;;;;;;;;10416432;28;19979;-64
2022/10/31 06:05:53;;;;;;;;;;;;;;;;;;10452155;28;20399;-64
2022/10/31 06:10:56;;;;;;;;;;;;;;;;;;10457293;28;20466;-64
2022/10/31 06:15:58;;;;;;;;;;;;;;;;;;10456967;28;19929;-64
2022/10/31 06:21:00;;;;;;;;;;;;;;;;;;10457164;28;19978;-64
2022/10/31 06:26:02;;;;;;;;;;;;;;;;;;10456310;28;20326;-64
2022/10/31 06:31:04;;;;;;;;;;;;;;;;;;10457503;28;19970;-64
2022/10/31 06:36:06;;;;;;;;;;;;;;;;;;10457453;28;19925;-64
2022/10/31 06:41:08;;;;;;;;;;;;;;;;;;10438160;28;20391;-63
2022/10/31 06:46:10;;;;;;;;;;;;;;;;;;10455601;28;19925;-64
2022/10/31 06:51:12;;;;;;;;;;;;;;;;;;10457017;28;19928;-63
2022/10/31 06:56:14;;;;;;;;;;;;;;;;;;10439286;28;19925;-64
2022/10/31 07:01:16;;;;;;;;;;;;;;;;;;10455278;28;20371;-64
2022/10/31 07:06:18;;;;;;;;;;;;;;;;;;10456020;28;20357;-64
2022/10/31 07:11:20;;;;;;;;;;;;;;;;;;10423904;28;19952;-65
2022/10/31 07:16:22;;;;;;;;;;;;;;;;;;10434389;22;19924;-67
2022/10/31 07:21:25;;;;;;;;;;;;;;;;;;10581936;28;19973;-67
2022/10/31 07:26:27;;;;;;;;;;;;;;;;;;10580411;28;19989;-67
2022/10/31 07:31:29;;;;;;;;;;;;;;;;;;10577942;28;20324;-68
2022/10/31 07:36:31;;;;;;;;;;;;;;;;;;10579359;28;20036;-67
2022/10/31 07:41:34;;;;;;;;;;;;;;;;;;10579633;28;19931;-67
2022/10/31 07:46:36;;;;;;;;;;;;;;;;;;10579193;28;20439;-67
2022/10/31 07:51:38;;;;;;;;;;;;;;;;;;10577528;28;19924;-69
2022/10/31 07:56:46;;;;;;;;;;;;;;;;;;10572136;28;19966;-67
2022/10/31 08:01:49;;;;;;;;;;;;;;;;;;10587648;28;19924;-68
2022/10/31 08:06:51;;;;;;;;;;;;;;;;;;10584632;28;19924;-67
2022/10/31 08:11:53;;;;;;;;;;;;;;;;;;10574724;28;20358;-67
2022/10/31 08:16:55;;;;;;;;;;;;;;;;;;10576445;28;19960;-67
2022/10/31 08:21:58;;;;;;;;;;;;;;;;;;10563866;28;20301;-68
2022/10/31 08:27:00;;;;;;;;;;;;;;;;;;10537688;28;19970;-69
2022/10/31 08:32:02;;;;;;;;;;;;;;;;;;10552317;28;20669;-67
2022/10/31 08:37:04;;;;;;;;;;;;;;;;;;10569437;28;20399;-67
2022/10/31 08:42:06;;;;;;;;;;;;;;;;;;10583584;28;19977;-67
2022/10/31 08:47:08;;;;;;;;;;;;;;;;;;10581440;28;19969;-67
2022/10/31 08:52:10;;;;;;;;;;;;;;;;;;10585393;28;19981;-68
2022/10/31 08:57:15;;;;;;;;;;;;;;;;;;10583931;28;20015;-67
2022/10/31 09:02:17;;;;;;;;;;;;;;;;;;10583511;28;20378;-68
2022/10/31 09:07:19;;;;;;;;;;;;;;;;;;10583883;28;19927;-68
2022/10/31 09:12:23;;;;;;;;;;;;;;;;;;10580069;28;20378;-68
2022/10/31 09:17:26;;;;;;;;;;;;;;;;;;10584107;28;20411;-68
2022/10/31 09:22:28;;;;;;;;;;;;;;;;;;10584631;28;19972;-67
2022/10/31 09:27:30;;;;;;;;;;;;;;;;;;10584297;28;20051;-68
2022/10/31 09:32:32;;;;;;;;;;;;;;;;;;10583564;28;19977;-69
2022/10/31 09:37:34;;;;;;;;;;;;;;;;;;10583461;28;19976;-69
2022/10/31 09:42:36;;;;;;;;;;;;;;;;;;10583591;28;19924;-71
2022/10/31 09:47:38;;;;;;;;;;;;;;;;;;10565613;28;19924;-72
2022/10/31 09:52:41;;;;;;;;;;;;;;;;;;10580927;28;20340;-73
2022/10/31 09:57:43;;;;;;;;;;;;;;;;;;10580260;28;19927;-72
2022/10/31 10:02:45;;;;;;;;;;;;;;;;;;10580399;28;20366;-72
2022/10/31 10:07:47;;;;;;;;;;;;;;;;;;10578409;28;19927;-73
2022/10/31 10:12:49;;;;;;;;;;;;;;;;;;10576023;28;19927;-73
2022/10/31 10:17:51;;;;;;;;;;;;;;;;;;10580834;28;19932;-73
2022/10/31 10:22:53;;;;;;;;;;;;;;;;;;10582602;28;19992;-73
2022/10/31 10:27:55;;;;;;;;;;;;;;;;;;10582298;28;20375;-73
2022/10/31 10:32:57;;;;;;;;;;;;;;;;;;10582911;28;19928;-73
2022/10/31 10:37:59;;;;;;;;;;;;;;;;;;10582505;28;19944;-73
2022/10/31 10:48:24;;;;;;;;;;;;;;;;;;10569367;28;19924;-73
2022/10/31 10:53:32;;;;;;;;;;;;;;;;;;10581695;28;19924;-73
2022/10/31 10:58:36;;;;;;;;;;;;;;;;;;10581052;28;19969;-73
2022/10/31 11:03:38;;;;;;;;;;;;;;;;;;10563504;28;19924;-73
2022/10/31 11:08:40;;;;;;;;;;;;;;;;;;10581572;28;19969;-73
2022/10/31 11:13:42;;;;;;;;;;;;;;;;;;10580597;28;20423;-73
2022/10/31 11:18:44;;;;;;;;;;;;;;;;;;10580459;28;19993;-73
2022/10/31 11:23:46;;;;;;;;;;;;;;;;;;10580486;28;20382;-74
2022/10/31 11:28:48;;;;;;;;;;;;;;;;;;10584803;28;19928;-73
2022/10/31 11:33:50;;;;;;;;;;;;;;;;;;10589055;28;19928;-73
2022/10/31 11:38:53;;;;;;;;;;;;;;;;;;10568074;28;19966;-73
2022/10/31 11:43:55;;;;;;;;;;;;;;;;;;10585990;28;20359;-73
2022/10/31 11:48:57;;;;;;;;;;;;;;;;;;10570396;28;19924;-73
2022/10/31 11:53:59;;;;;;;;;;;;;;;;;;10545774;28;19989;-73
2022/10/31 11:59:04;;;;;;;;;;;;;;;;;;10546083;28;19924;-73
2022/10/31 12:04:06;;;;;;;;;;;;;;;;;;10545241;28;20391;-74
2022/10/31 12:09:08;;;;;;;;;;;;;;;;;;10545368;28;19977;-73
2022/10/31 12:14:10;;;;;;;;;;;;;;;;;;10544089;28;20345;-74
2022/10/31 12:19:12;;;;;;;;;;;;;;;;;;10544347;28;19932;-74
2022/10/31 12:24:14;;;;;;;;;;;;;;;;;;10544302;28;20394;-74
2022/10/31 12:29:16;;;;;;;;;;;;;;;;;;10544304;28;19924;-74
2022/10/31 12:34:18;;;;;;;;;;;;;;;;;;10541095;28;19969;-75
2022/10/31 12:39:20;;;;;;;;;;;;;;;;;;10541472;28;19931;-73
2022/10/31 12:44:22;;;;;;;;;;;;;;;;;;10541845;28;19981;-73
2022/10/31 12:49:25;;;;;;;;;;;;;;;;;;10544616;28;19970;-73
2022/10/31 12:54:27;;;;;;;;;;;;;;;;;;10568394;28;20165;-73
2022/10/31 12:59:29;;;;;;;;;;;;;;;;;;10585883;28;19927;-73
2022/10/31 13:04:31;;;;;;;;;;;;;;;;;;10583224;28;19984;-73
2022/10/31 13:09:34;;;;;;;;;;;;;;;;;;10578029;28;20378;-73
2022/10/31 13:14:36;;;;;;;;;;;;;;;;;;10553771;28;19924;-73
2022/10/31 13:19:38;;;;;;;;;;;;;;;;;;10541416;28;19924;-73
2022/10/31 13:24:41;;;;;;;;;;;;;;;;;;10543212;28;19924;-73
2022/10/31 13:29:43;;;;;;;;;;;;;;;;;;10542399;28;19924;-73
2022/10/31 13:34:45;;;;;;;;;;;;;;;;;;10542741;28;19977;-73
2022/10/31 13:39:47;;;;;;;;;;;;;;;;;;10542116;28;19928;-72
2022/10/31 13:44:49;;;;;;;;;;;;;;;;;;10540431;28;19924;-73
2022/10/31 13:49:51;;;;;;;;;;;;;;;;;;10540934;28;19947;-73
2022/10/31 13:54:56;;;;;;;;;;;;;;;;;;10541969;28;19969;-73
2022/10/31 13:59:58;;;;;;;;;;;;;;;;;;10541270;28;19924;-73
2022/10/31 14:05:00;;;;;;;;;;;;;;;;;;10541025;28;19973;-72
2022/10/31 14:10:02;;;;;;;;;;;;;;;;;;10578324;28;19928;-73
2022/10/31 14:15:05;;;;;;;;;;;;;;;;;;10583663;28;19977;-73
2022/10/31 14:20:07;;;;;;;;;;;;;;;;;;10583115;28;19965;-73
2022/10/31 14:25:09;;;;;;;;;;;;;;;;;;10582591;28;20363;-73
2022/10/31 14:30:11;;;;;;;;;;;;;;;;;;10583759;28;19928;-73
2022/10/31 14:35:13;;;;;;;;;;;;;;;;;;10582759;28;19973;-73
2022/10/31 14:40:19;;;;;;;;;;;;;;;;;;10582240;28;20336;-73
2022/10/31 14:45:21;;;;;;;;;;;;;;;;;;10582133;28;19997;-73
2022/10/31 14:50:23;;;;;;;;;;;;;;;;;;10583282;28;19927;-73
2022/10/31 14:55:25;;;;;;;;;;;;;;;;;;10582533;28;19969;-73
2022/10/31 15:00:27;;;;;;;;;;;;;;;;;;10582468;28;19923;-72
2022/10/31 15:05:29;;;;;;;;;;;;;;;;;;10591046;28;19924;-73
2022/10/31 15:10:33;;;;;;;;;;;;;;;;;;10590354;28;19928;-73
2022/10/31 15:15:35;;;;;;;;;;;;;;;;;;10589943;28;20252;-72
2022/10/31 15:20:37;;;;;;;;;;;;;;;;;;10590236;28;19924;-72
2022/10/31 15:25:39;;;;;;;;;;;;;;;;;;10590308;28;19924;-73
2022/10/31 15:30:41;;;;;;;;;;;;;;;;;;10589807;28;19928;-72
2022/10/31 15:35:43;;;;;;;;;;;;;;;;;;10589207;28;20328;-72
2022/10/31 15:40:45;;;;;;;;;;;;;;;;;;10588500;28;19924;-72
2022/10/31 15:45:47;;;;;;;;;;;;;;;;;;10589478;28;19969;-72
2022/10/31 15:50:49;;;;;;;;;;;;;;;;;;10588553;28;20523;-72
2022/10/31 15:55:51;;;;;;;;;;;;;;;;;;10589544;28;19950;-72
2022/10/31 16:00:53;;;;;;;;;;;;;;;;;;10588217;27;19928;-72
2022/10/31 16:05:55;;;;;;;;;;;;;;;;;;10589220;28;19931;-72
2022/10/31 16:10:57;;;;;;;;;;;;;;;;;;10588364;28;19924;-72
2022/10/31 16:16:00;;;;;;;;;;;;;;;;;;10587582;28;19924;-72
2022/10/31 16:21:22;;;;;;;;;;;;;;;;;;10587246;28;20373;-72
2022/10/31 16:26:24;;;;;;;;;;;;;;;;;;10587860;28;19973;-72
2022/10/31 16:31:26;;;;;;;;;;;;;;;;;;10586925;28;20328;-72
2022/10/31 16:36:30;;;;;;;;;;;;;;;;;;10586868;28;20342;-72
2022/10/31 16:41:36;;;;;;;;;;;;;;;;;;10586689;28;20354;-72
2022/10/31 16:46:38;;;;;;;;;;;;;;;;;;10586448;28;19923;-72
2022/10/31 16:51:40;;;;;;;;;;;;;;;;;;10586123;28;19923;-72
2022/10/31 16:56:42;;;;;;;;;;;;;;;;;;10585933;28;20444;-72
2022/10/31 17:01:44;;;;;;;;;;;;;;;;;;10586375;28;19923;-72
2022/10/31 17:06:47;;;;;;;;;;;;;;;;;;10586081;28;19924;-71
2022/10/31 17:11:49;;;;;;;;;;;;;;;;;;10584703;28;19928;-71
2022/10/31 17:16:51;;;;;;;;;;;;;;;;;;10585501;28;19931;-71
2022/10/31 17:21:53;;;;;;;;;;;;;;;;;;10584873;28;19977;-71
2022/10/31 17:26:55;;;;;;;;;;;;;;;;;;10582279;27;19924;-71
2022/10/31 17:31:58;;;;;;;;;;;;;;;;;;10583752;28;19924;-72
2022/10/31 17:37:00;;;;;;;;;;;;;;;;;;10583447;28;19936;-71
2022/10/31 17:42:02;;;;;;;;;;;;;;;;;;10584781;28;19927;-72
2022/10/31 17:47:05;;;;;;;;;;;;;;;;;;10582277;28;19923;-71
2022/10/31 17:52:14;;;;;;;;;;;;;;;;;;10525376;27;19919;-71
2022/10/31 17:57:16;;;;;;;;;;;;;;;;;;10522958;28;20392;-71
2022/10/31 18:02:18;;;;;;;;;;;;;;;;;;10547764;22;19982;-64
2022/10/31 18:07:20;;;;;;;;;;;;;;;;;;10532286;28;20329;-64
2022/10/31 18:12:22;;;;;;;;;;;;;;;;;;10532254;28;19924;-64
2022/10/31 18:17:25;;;;;;;;;;;;;;;;;;10530647;28;19925;-64
2022/10/31 18:22:27;;;;;;;;;;;;;;;;;;10527773;28;20371;-64
2022/10/31 18:27:29;;;;;;;;;;;;;;;;;;10528465;28;19928;-64
2022/10/31 18:32:31;;;;;;;;;;;;;;;;;;10532765;28;19931;-66
2022/10/31 18:37:33;;;;;;;;;;;;;;;;;;10532902;28;19931;-67
2022/10/31 18:42:37;;;;;;;;;;;;;;;;;;10530772;28;20953;-66
2022/10/31 18:47:39;;;;;;;;;;;;;;;;;;10525290;28;20337;-67
2022/10/31 18:52:41;;;;;;;;;;;;;;;;;;10513961;28;19971;-66
2022/10/31 18:57:43;;;;;;;;;;;;;;;;;;10526605;28;19924;-66
2022/10/31 19:02:45;;;;;;;;;;;;;;;;;;10508494;28;19994;-67
2022/10/31 19:07:47;;;;;;;;;;;;;;;;;;10501937;28;19928;-67
2022/10/31 19:12:49;;;;;;;;;;;;;;;;;;10499039;28;19986;-66
2022/10/31 19:17:51;;;;;;;;;;;;;;;;;;10494596;28;20256;-66
2022/10/31 19:22:53;;;;;;;;;;;;;;;;;;10502690;28;19978;-66
2022/10/31 19:27:55;;;;;;;;;;;;;;;;;;10499317;28;19929;-66
2022/10/31 19:32:58;;;;;;;;;;;;;;;;;;10498917;28;19974;-66
2022/10/31 19:38:00;;;;;;;;;;;;;;;;;;10502714;28;20003;-66
2022/10/31 19:43:02;;;;;;;;;;;;;;;;;;10483747;28;20014;-66
2022/10/31 19:48:04;;;;;;;;;;;;;;;;;;10501692;28;19924;-66
2022/10/31 19:53:07;;;;;;;;;;;;;;;;;;10501323;28;19924;-66
2022/10/31 19:58:09;;;;;;;;;;;;;;;;;;10501749;28;19955;-66
2022/10/31 20:03:11;;;;;;;;;;;;;;;;;;10501218;28;19974;-66
2022/10/31 20:08:14;;;;;;;;;;;;;;;;;;10499446;28;19968;-67
2022/10/31 20:13:16;;;;;;;;;;;;;;;;;;10497075;28;19970;-66
2022/10/31 20:18:18;;;;;;;;;;;;;;;;;;10497540;28;19925;-66
2022/10/31 20:23:20;;;;;;;;;;;;;;;;;;10500354;28;19924;-66
2022/10/31 20:28:22;;;;;;;;;;;;;;;;;;10496160;28;19970;-66
2022/10/31 20:33:24;;;;;;;;;;;;;;;;;;10500360;28;20329;-67
2022/10/31 20:38:26;;;;;;;;;;;;;;;;;;10498123;28;19924;-67
2022/10/31 20:43:29;;;;;;;;;;;;;;;;;;10500635;28;19970;-66
2022/10/31 20:48:31;;;;;;;;;;;;;;;;;;10499371;28;19925;-67
2022/10/31 20:53:33;;;;;;;;;;;;;;;;;;10498767;28;19925;-67
2022/10/31 20:58:35;;;;;;;;;;;;;;;;;;10498537;28;20333;-67
2022/10/31 21:03:37;;;;;;;;;;;;;;;;;;10481739;28;19928;-66
2022/10/31 21:08:39;;;;;;;;;;;;;;;;;;10496463;28;20013;-67
2022/10/31 21:13:41;;;;;;;;;;;;;;;;;;10497372;28;19928;-66
2022/10/31 21:18:43;;;;;;;;;;;;;;;;;;10494613;28;20378;-66
2022/10/31 21:23:45;;;;;;;;;;;;;;;;;;10493082;28;19929;-66
2022/10/31 21:28:47;;;;;;;;;;;;;;;;;;10493977;28;19928;-67
2022/10/31 21:33:49;;;;;;;;;;;;;;;;;;10499001;28;19954;-67
2022/10/31 21:38:51;;;;;;;;;;;;;;;;;;10498966;28;19925;-66
2022/10/31 21:43:53;;;;;;;;;;;;;;;;;;10497372;28;20425;-67
2022/10/31 21:48:56;;;;;;;;;;;;;;;;;;10496917;28;19978;-67
2022/10/31 21:59:18;;;;;;;;;;;;;;;;;;10498613;28;19928;-66
2022/10/31 22:04:20;;;;;;;;;;;;;;;;;;10497649;28;19978;-67
2022/10/31 22:09:22;;;;;;;;;;;;;;;;;;10495566;28;19983;-66
2022/10/31 22:14:24;;;;;;;;;;;;;;;;;;10497987;28;19924;-66
2022/10/31 22:19:26;;;;;;;;;;;;;;;;;;10497679;28;19978;-66
2022/10/31 22:24:28;;;;;;;;;;;;;;;;;;10495560;28;20295;-66
2022/10/31 22:29:30;;;;;;;;;;;;;;;;;;10497855;28;19970;-66
2022/10/31 22:34:32;;;;;;;;;;;;;;;;;;10498507;28;19924;-66
2022/10/31 22:39:35;;;;;;;;;;;;;;;;;;10504013;28;20334;-66
2022/10/31 22:44:37;;;;;;;;;;;;;;;;;;10504315;28;19925;-66
2022/10/31 22:49:39;;;;;;;;;;;;;;;;;;10505070;28;19929;-66
2022/10/31 22:54:41;;;;;;;;;;;;;;;;;;10504205;28;19925;-66
2022/10/31 22:59:43;;;;;;;;;;;;;;;;;;10503373;28;19924;-66
2022/10/31 23:04:45;;;;;;;;;;;;;;;;;;10502901;28;19924;-66
2022/10/31 23:09:47;;;;;;;;;;;;;;;;;;10503703;28;20433;-66
2022/10/31 23:14:49;;;;;;;;;;;;;;;;;;10504246;28;19973;-66
2022/10/31 23:19:51;;;;;;;;;;;;;;;;;;10503397;28;19978;-66
2022/10/31 23:24:53;;;;;;;;;;;;;;;;;;10502880;28;19924;-66
2022/10/31 23:29:55;;;;;;;;;;;;;;;;;;10503669;28;19932;-66
2022/10/31 23:34:57;;;;;;;;;;;;;;;;;;10502864;28;19928;-66
2022/10/31 23:39:59;;;;;;;;;;;;;;;;;;10484281;28;20272;-66
2022/10/31 23:45:02;;;;;;;;;;;;;;;;;;10501484;28;19925;-66
2022/10/31 23:50:04;;;;;;;;;;;;;;;;;;10501614;28;20075;-66
2022/10/31 23:55:06;;;;;;;;;;;;;;;;;;10502706;28;19924;-66
